sensor_id;sensor_type;location;lat;lon;timestamp;P1;durP1;ratioP1;P2;durP2;ratioP2
72761;SDS011;60886;55.034;73.150;2023-03-01T00:02:22;9.17;;;3.57;;
72761;SDS011;60886;55.034;73.150;2023-03-01T00:05:23;9.02;;;3.30;;
72761;SDS011;60886;55.034;73.150;2023-03-01T00:08:25;9.60;;;3.90;;
72761;SDS011;60886;55.034;73.150;2023-03-01T00:11:32;11.05;;;4.05;;
72761;SDS011;60886;55.034;73.150;2023-03-01T00:14:35;9.87;;;3.73;;
72761;SDS011;60886;55.034;73.150;2023-03-01T00:17:37;10.52;;;4.15;;
72761;SDS011;60886;55.034;73.150;2023-03-01T00:20:38;9.50;;;3.67;;
72761;SDS011;60886;55.034;73.150;2023-03-01T00:23:39;9.03;;;3.47;;
72761;SDS011;60886;55.034;73.150;2023-03-01T00:26:46;9.55;;;3.30;;
72761;SDS011;60886;55.034;73.150;2023-03-01T00:29:57;10.55;;;3.65;;
72761;SDS011;60886;55.034;73.150;2023-03-01T00:32:59;11.05;;;3.70;;
72761;SDS011;60886;55.034;73.150;2023-03-01T00:36:06;10.60;;;4.20;;
72761;SDS011;60886;55.034;73.150;2023-03-01T00:39:10;10.63;;;4.00;;
72761;SDS011;60886;55.034;73.150;2023-03-01T00:42:24;8.60;;;3.33;;
72761;SDS011;60886;55.034;73.150;2023-03-01T00:45:25;9.63;;;3.53;;
72761;SDS011;60886;55.034;73.150;2023-03-01T00:48:37;10.47;;;3.57;;
72761;SDS011;60886;55.034;73.150;2023-03-01T00:51:45;11.43;;;3.88;;
72761;SDS011;60886;55.034;73.150;2023-03-01T00:54:46;11.57;;;3.60;;
72761;SDS011;60886;55.034;73.150;2023-03-01T00:57:47;10.32;;;3.72;;
72761;SDS011;60886;55.034;73.150;2023-03-01T01:00:59;10.67;;;3.50;;
72761;SDS011;60886;55.034;73.150;2023-03-01T01:04:12;9.27;;;3.33;;
72761;SDS011;60886;55.034;73.150;2023-03-01T01:07:14;10.10;;;3.40;;
72761;SDS011;60886;55.034;73.150;2023-03-01T01:10:16;11.35;;;3.40;;
72761;SDS011;60886;55.034;73.150;2023-03-01T01:13:31;9.83;;;3.60;;
72761;SDS011;60886;55.034;73.150;2023-03-01T01:16:37;9.40;;;3.60;;
72761;SDS011;60886;55.034;73.150;2023-03-01T01:19:39;10.32;;;3.53;;
72761;SDS011;60886;55.034;73.150;2023-03-01T01:22:40;9.13;;;3.23;;
72761;SDS011;60886;55.034;73.150;2023-03-01T01:25:46;9.63;;;3.50;;
72761;SDS011;60886;55.034;73.150;2023-03-01T01:28:54;8.93;;;3.17;;
72761;SDS011;60886;55.034;73.150;2023-03-01T01:31:56;9.65;;;3.38;;
72761;SDS011;60886;55.034;73.150;2023-03-01T01:35:02;9.17;;;3.40;;
72761;SDS011;60886;55.034;73.150;2023-03-01T01:38:04;9.70;;;3.28;;
72761;SDS011;60886;55.034;73.150;2023-03-01T01:41:06;8.00;;;2.80;;
72761;SDS011;60886;55.034;73.150;2023-03-01T01:44:19;9.82;;;3.47;;
72761;SDS011;60886;55.034;73.150;2023-03-01T01:47:24;9.43;;;3.53;;
72761;SDS011;60886;55.034;73.150;2023-03-01T01:50:33;8.98;;;3.45;;
72761;SDS011;60886;55.034;73.150;2023-03-01T01:53:39;9.00;;;3.10;;
72761;SDS011;60886;55.034;73.150;2023-03-01T01:56:44;8.27;;;3.30;;
72761;SDS011;60886;55.034;73.150;2023-03-01T01:59:59;9.80;;;3.77;;
72761;SDS011;60886;55.034;73.150;2023-03-01T02:03:15;10.05;;;4.00;;
72761;SDS011;60886;55.034;73.150;2023-03-01T02:06:26;10.10;;;3.60;;
72761;SDS011;60886;55.034;73.150;2023-03-01T02:09:42;10.10;;;3.67;;
72761;SDS011;60886;55.034;73.150;2023-03-01T02:12:57;9.13;;;3.33;;
72761;SDS011;60886;55.034;73.150;2023-03-01T02:16:23;8.50;;;3.20;;
72761;SDS011;60886;55.034;73.150;2023-03-01T02:19:31;10.90;;;3.88;;
72761;SDS011;60886;55.034;73.150;2023-03-01T02:22:44;10.32;;;3.63;;
72761;SDS011;60886;55.034;73.150;2023-03-01T02:25:50;10.45;;;3.55;;
72761;SDS011;60886;55.034;73.150;2023-03-01T02:29:03;8.10;;;2.83;;
72761;SDS011;60886;55.034;73.150;2023-03-01T02:32:09;10.00;;;3.90;;
72761;SDS011;60886;55.034;73.150;2023-03-01T02:35:22;9.98;;;4.10;;
72761;SDS011;60886;55.034;73.150;2023-03-01T02:38:24;11.40;;;4.65;;
72761;SDS011;60886;55.034;73.150;2023-03-01T02:41:26;10.45;;;4.35;;
72761;SDS011;60886;55.034;73.150;2023-03-01T02:44:36;10.90;;;3.90;;
72761;SDS011;60886;55.034;73.150;2023-03-01T02:47:43;11.55;;;4.63;;
72761;SDS011;60886;55.034;73.150;2023-03-01T02:57:49;10.40;;;4.10;;
72761;SDS011;60886;55.034;73.150;2023-03-01T03:00:56;11.23;;;4.10;;
72761;SDS011;60886;55.034;73.150;2023-03-01T03:04:00;9.73;;;3.40;;
72761;SDS011;60886;55.034;73.150;2023-03-01T03:07:09;9.86;;;3.70;;
72761;SDS011;60886;55.034;73.150;2023-03-01T03:10:21;9.90;;;4.07;;
72761;SDS011;60886;55.034;73.150;2023-03-01T03:13:33;10.10;;;4.10;;
72761;SDS011;60886;55.034;73.150;2023-03-01T03:16:35;9.35;;;3.92;;
72761;SDS011;60886;55.034;73.150;2023-03-01T03:19:41;9.90;;;4.00;;
72761;SDS011;60886;55.034;73.150;2023-03-01T03:22:46;9.35;;;3.53;;
72761;SDS011;60886;55.034;73.150;2023-03-01T03:25:59;9.43;;;3.87;;
72761;SDS011;60886;55.034;73.150;2023-03-01T03:29:00;8.90;;;3.28;;
72761;SDS011;60886;55.034;73.150;2023-03-01T03:32:12;9.23;;;3.65;;
72761;SDS011;60886;55.034;73.150;2023-03-01T03:35:13;9.57;;;3.90;;
72761;SDS011;60886;55.034;73.150;2023-03-01T03:38:15;9.52;;;3.75;;
72761;SDS011;60886;55.034;73.150;2023-03-01T03:41:19;8.43;;;3.15;;
72761;SDS011;60886;55.034;73.150;2023-03-01T03:44:21;8.53;;;3.53;;
72761;SDS011;60886;55.034;73.150;2023-03-01T03:47:32;10.93;;;3.90;;
72761;SDS011;60886;55.034;73.150;2023-03-01T03:50:47;9.35;;;3.40;;
72761;SDS011;60886;55.034;73.150;2023-03-01T03:54:00;10.00;;;4.10;;
72761;SDS011;60886;55.034;73.150;2023-03-01T03:57:09;11.07;;;4.43;;
72761;SDS011;60886;55.034;73.150;2023-03-01T04:00:21;10.63;;;4.15;;
72761;SDS011;60886;55.034;73.150;2023-03-01T04:03:29;12.10;;;4.53;;
72761;SDS011;60886;55.034;73.150;2023-03-01T04:06:32;12.30;;;4.60;;
72761;SDS011;60886;55.034;73.150;2023-03-01T04:09:34;10.83;;;4.20;;
72761;SDS011;60886;55.034;73.150;2023-03-01T04:12:35;11.57;;;4.35;;
72761;SDS011;60886;55.034;73.150;2023-03-01T04:15:37;11.07;;;4.30;;
72761;SDS011;60886;55.034;73.150;2023-03-01T04:18:38;10.75;;;4.35;;
72761;SDS011;60886;55.034;73.150;2023-03-01T04:21:40;9.50;;;4.13;;
72761;SDS011;60886;55.034;73.150;2023-03-01T04:24:41;11.02;;;4.28;;
72761;SDS011;60886;55.034;73.150;2023-03-01T04:27:47;10.27;;;4.10;;
72761;SDS011;60886;55.034;73.150;2023-03-01T04:30:54;9.80;;;3.90;;
72761;SDS011;60886;55.034;73.150;2023-03-01T04:33:56;9.30;;;3.67;;
72761;SDS011;60886;55.034;73.150;2023-03-01T04:36:58;11.00;;;4.55;;
72761;SDS011;60886;55.034;73.150;2023-03-01T04:40:09;9.85;;;3.88;;
72761;SDS011;60886;55.034;73.150;2023-03-01T04:43:17;10.83;;;3.87;;
72761;SDS011;60886;55.034;73.150;2023-03-01T04:46:19;8.98;;;4.00;;
72761;SDS011;60886;55.034;73.150;2023-03-01T04:49:31;9.63;;;4.32;;
72761;SDS011;60886;55.034;73.150;2023-03-01T04:52:43;10.35;;;4.30;;
72761;SDS011;60886;55.034;73.150;2023-03-01T04:55:45;9.05;;;4.10;;
72761;SDS011;60886;55.034;73.150;2023-03-01T04:58:46;11.00;;;4.70;;
72761;SDS011;60886;55.034;73.150;2023-03-01T05:01:48;11.00;;;5.00;;
72761;SDS011;60886;55.034;73.150;2023-03-01T05:04:50;10.70;;;5.00;;
72761;SDS011;60886;55.034;73.150;2023-03-01T05:07:58;11.20;;;4.90;;
72761;SDS011;60886;55.034;73.150;2023-03-01T05:11:01;9.03;;;4.53;;
72761;SDS011;60886;55.034;73.150;2023-03-01T05:14:03;10.00;;;4.40;;
72761;SDS011;60886;55.034;73.150;2023-03-01T05:17:09;11.43;;;5.07;;
72761;SDS011;60886;55.034;73.150;2023-03-01T05:20:20;10.60;;;4.53;;
72761;SDS011;60886;55.034;73.150;2023-03-01T05:23:25;10.85;;;4.82;;
72761;SDS011;60886;55.034;73.150;2023-03-01T05:26:26;12.23;;;5.28;;
72761;SDS011;60886;55.034;73.150;2023-03-01T05:29:30;10.63;;;5.05;;
72761;SDS011;60886;55.034;73.150;2023-03-01T05:32:46;10.27;;;4.97;;
72761;SDS011;60886;55.034;73.150;2023-03-01T05:35:50;10.83;;;5.10;;
72761;SDS011;60886;55.034;73.150;2023-03-01T05:38:59;12.15;;;5.70;;
72761;SDS011;60886;55.034;73.150;2023-03-01T05:42:10;10.70;;;5.00;;
72761;SDS011;60886;55.034;73.150;2023-03-01T05:45:19;12.45;;;5.30;;
72761;SDS011;60886;55.034;73.150;2023-03-01T05:48:21;13.17;;;5.70;;
72761;SDS011;60886;55.034;73.150;2023-03-01T05:51:28;12.05;;;5.47;;
72761;SDS011;60886;55.034;73.150;2023-03-01T05:54:40;12.18;;;5.90;;
72761;SDS011;60886;55.034;73.150;2023-03-01T05:57:46;12.43;;;5.83;;
72761;SDS011;60886;55.034;73.150;2023-03-01T06:00:58;13.93;;;6.63;;
72761;SDS011;60886;55.034;73.150;2023-03-01T06:03:59;14.33;;;6.33;;
72761;SDS011;60886;55.034;73.150;2023-03-01T06:07:09;13.43;;;6.32;;
72761;SDS011;60886;55.034;73.150;2023-03-01T06:10:11;13.02;;;5.72;;
72761;SDS011;60886;55.034;73.150;2023-03-01T06:13:23;12.73;;;6.22;;
72761;SDS011;60886;55.034;73.150;2023-03-01T06:16:25;11.90;;;5.60;;
72761;SDS011;60886;55.034;73.150;2023-03-01T06:19:26;11.07;;;5.80;;
72761;SDS011;60886;55.034;73.150;2023-03-01T06:22:34;12.17;;;6.07;;
72761;SDS011;60886;55.034;73.150;2023-03-01T06:25:41;13.82;;;6.55;;
72761;SDS011;60886;55.034;73.150;2023-03-01T06:28:43;12.75;;;6.55;;
72761;SDS011;60886;55.034;73.150;2023-03-01T06:31:46;14.98;;;7.07;;
72761;SDS011;60886;55.034;73.150;2023-03-01T06:34:56;14.90;;;7.25;;
72761;SDS011;60886;55.034;73.150;2023-03-01T06:38:00;14.70;;;6.80;;
72761;SDS011;60886;55.034;73.150;2023-03-01T06:41:02;15.13;;;7.65;;
72761;SDS011;60886;55.034;73.150;2023-03-01T06:44:03;14.52;;;7.38;;
72761;SDS011;60886;55.034;73.150;2023-03-01T06:47:09;15.02;;;7.28;;
72761;SDS011;60886;55.034;73.150;2023-03-01T06:50:10;15.27;;;7.13;;
72761;SDS011;60886;55.034;73.150;2023-03-01T06:53:12;14.43;;;6.83;;
72761;SDS011;60886;55.034;73.150;2023-03-01T06:56:13;15.15;;;7.70;;
72761;SDS011;60886;55.034;73.150;2023-03-01T06:59:15;15.55;;;7.50;;
72761;SDS011;60886;55.034;73.150;2023-03-01T07:02:17;15.70;;;7.93;;
72761;SDS011;60886;55.034;73.150;2023-03-01T07:05:19;16.73;;;7.93;;
72761;SDS011;60886;55.034;73.150;2023-03-01T07:08:25;15.90;;;7.82;;
72761;SDS011;60886;55.034;73.150;2023-03-01T07:11:27;15.57;;;8.02;;
72761;SDS011;60886;55.034;73.150;2023-03-01T07:14:39;15.47;;;7.67;;
72761;SDS011;60886;55.034;73.150;2023-03-01T07:17:40;17.25;;;8.43;;
72761;SDS011;60886;55.034;73.150;2023-03-01T07:20:41;15.53;;;7.67;;
72761;SDS011;60886;55.034;73.150;2023-03-01T07:23:43;16.02;;;8.40;;
72761;SDS011;60886;55.034;73.150;2023-03-01T07:26:54;14.50;;;7.43;;
72761;SDS011;60886;55.034;73.150;2023-03-01T07:29:55;14.33;;;7.60;;
72761;SDS011;60886;55.034;73.150;2023-03-01T07:33:01;14.67;;;7.30;;
72761;SDS011;60886;55.034;73.150;2023-03-01T07:36:03;15.35;;;7.57;;
72761;SDS011;60886;55.034;73.150;2023-03-01T07:39:05;16.63;;;7.60;;
72761;SDS011;60886;55.034;73.150;2023-03-01T07:42:09;15.25;;;7.25;;
72761;SDS011;60886;55.034;73.150;2023-03-01T07:45:11;15.80;;;7.43;;
72761;SDS011;60886;55.034;73.150;2023-03-01T07:48:22;13.97;;;7.10;;
72761;SDS011;60886;55.034;73.150;2023-03-01T07:51:28;14.98;;;7.35;;
72761;SDS011;60886;55.034;73.150;2023-03-01T07:54:29;17.00;;;7.97;;
72761;SDS011;60886;55.034;73.150;2023-03-01T07:57:31;14.50;;;7.17;;
72761;SDS011;60886;55.034;73.150;2023-03-01T08:00:32;14.98;;;7.75;;
72761;SDS011;60886;55.034;73.150;2023-03-01T08:03:34;16.27;;;8.48;;
72761;SDS011;60886;55.034;73.150;2023-03-01T08:06:36;16.45;;;7.88;;
72761;SDS011;60886;55.034;73.150;2023-03-01T08:09:43;13.25;;;6.78;;
72761;SDS011;60886;55.034;73.150;2023-03-01T08:12:55;12.68;;;6.60;;
72761;SDS011;60886;55.034;73.150;2023-03-01T08:16:01;13.38;;;6.55;;
72761;SDS011;60886;55.034;73.150;2023-03-01T08:19:04;17.17;;;8.18;;
72761;SDS011;60886;55.034;73.150;2023-03-01T08:22:10;18.90;;;8.50;;
72761;SDS011;60886;55.034;73.150;2023-03-01T08:25:21;22.67;;;8.77;;
72761;SDS011;60886;55.034;73.150;2023-03-01T08:28:23;22.50;;;8.10;;
72761;SDS011;60886;55.034;73.150;2023-03-01T08:34:33;17.60;;;7.55;;
72761;SDS011;60886;55.034;73.150;2023-03-01T08:37:36;16.35;;;6.90;;
72761;SDS011;60886;55.034;73.150;2023-03-01T08:40:37;15.23;;;6.47;;
72761;SDS011;60886;55.034;73.150;2023-03-01T08:43:39;15.38;;;6.75;;
72761;SDS011;60886;55.034;73.150;2023-03-01T08:46:41;14.70;;;6.82;;
72761;SDS011;60886;55.034;73.150;2023-03-01T08:49:43;14.75;;;6.05;;
72761;SDS011;60886;55.034;73.150;2023-03-01T08:52:54;11.03;;;5.20;;
72761;SDS011;60886;55.034;73.150;2023-03-01T08:55:55;10.07;;;4.80;;
72761;SDS011;60886;55.034;73.150;2023-03-01T08:59:03;10.40;;;4.97;;
72761;SDS011;60886;55.034;73.150;2023-03-01T09:02:16;9.60;;;4.55;;
72761;SDS011;60886;55.034;73.150;2023-03-01T09:05:30;9.77;;;4.25;;
72761;SDS011;60886;55.034;73.150;2023-03-01T09:08:40;9.07;;;4.10;;
72761;SDS011;60886;55.034;73.150;2023-03-01T09:11:43;10.07;;;4.50;;
72761;SDS011;60886;55.034;73.150;2023-03-01T09:14:46;11.10;;;4.90;;
72761;SDS011;60886;55.034;73.150;2023-03-01T09:17:58;12.10;;;5.40;;
72761;SDS011;60886;55.034;73.150;2023-03-01T09:21:13;10.63;;;5.22;;
72761;SDS011;60886;55.034;73.150;2023-03-01T09:24:16;12.53;;;5.37;;
72761;SDS011;60886;55.034;73.150;2023-03-01T09:27:17;11.03;;;4.87;;
72761;SDS011;60886;55.034;73.150;2023-03-01T09:30:31;11.00;;;4.93;;
72761;SDS011;60886;55.034;73.150;2023-03-01T09:33:32;11.13;;;5.13;;
72761;SDS011;60886;55.034;73.150;2023-03-01T09:36:34;11.65;;;5.20;;
72761;SDS011;60886;55.034;73.150;2023-03-01T09:39:36;11.40;;;4.77;;
72761;SDS011;60886;55.034;73.150;2023-03-01T09:42:51;10.70;;;4.65;;
72761;SDS011;60886;55.034;73.150;2023-03-01T09:45:59;12.07;;;5.07;;
72761;SDS011;60886;55.034;73.150;2023-03-01T09:49:19;11.25;;;5.47;;
72761;SDS011;60886;55.034;73.150;2023-03-01T09:52:29;11.23;;;4.80;;
72761;SDS011;60886;55.034;73.150;2023-03-01T09:55:45;12.75;;;5.53;;
72761;SDS011;60886;55.034;73.150;2023-03-01T10:12:10;11.66;;;5.18;;
72761;SDS011;60886;55.034;73.150;2023-03-01T10:15:42;10.73;;;4.90;;
72761;SDS011;60886;55.034;73.150;2023-03-01T10:18:45;12.93;;;5.80;;
72761;SDS011;60886;55.034;73.150;2023-03-01T10:22:19;11.40;;;5.42;;
72761;SDS011;60886;55.034;73.150;2023-03-01T10:25:38;13.00;;;5.53;;
72761;SDS011;60886;55.034;73.150;2023-03-01T10:32:16;11.50;;;5.63;;
72761;SDS011;60886;55.034;73.150;2023-03-01T10:35:26;10.70;;;5.10;;
72761;SDS011;60886;55.034;73.150;2023-03-01T10:38:30;11.90;;;5.40;;
72761;SDS011;60886;55.034;73.150;2023-03-01T10:41:59;11.65;;;5.32;;
72761;SDS011;60886;55.034;73.150;2023-03-01T10:48:27;12.37;;;5.63;;
72761;SDS011;60886;55.034;73.150;2023-03-01T10:51:29;12.00;;;5.60;;
72761;SDS011;60886;55.034;73.150;2023-03-01T10:54:31;11.40;;;5.28;;
72761;SDS011;60886;55.034;73.150;2023-03-01T10:57:35;12.57;;;5.50;;
72761;SDS011;60886;55.034;73.150;2023-03-01T11:00:46;11.43;;;5.65;;
72761;SDS011;60886;55.034;73.150;2023-03-01T11:07:09;12.52;;;6.35;;
72761;SDS011;60886;55.034;73.150;2023-03-01T11:10:16;14.57;;;6.30;;
72761;SDS011;60886;55.034;73.150;2023-03-01T11:13:24;14.80;;;6.03;;
72761;SDS011;60886;55.034;73.150;2023-03-01T11:16:27;12.60;;;5.97;;
72761;SDS011;60886;55.034;73.150;2023-03-01T11:19:33;14.30;;;6.30;;
72761;SDS011;60886;55.034;73.150;2023-03-01T11:22:35;13.50;;;5.73;;
72761;SDS011;60886;55.034;73.150;2023-03-01T11:25:39;13.55;;;6.03;;
72761;SDS011;60886;55.034;73.150;2023-03-01T11:28:49;14.33;;;6.33;;
72761;SDS011;60886;55.034;73.150;2023-03-01T11:31:55;14.93;;;6.60;;
72761;SDS011;60886;55.034;73.150;2023-03-01T11:35:04;15.35;;;6.63;;
72761;SDS011;60886;55.034;73.150;2023-03-01T11:38:22;14.10;;;5.93;;
72761;SDS011;60886;55.034;73.150;2023-03-01T11:41:27;13.40;;;6.10;;
72761;SDS011;60886;55.034;73.150;2023-03-01T11:44:33;17.70;;;6.97;;
72761;SDS011;60886;55.034;73.150;2023-03-01T11:47:51;14.80;;;6.57;;
72761;SDS011;60886;55.034;73.150;2023-03-01T11:51:22;13.25;;;5.95;;
72761;SDS011;60886;55.034;73.150;2023-03-01T11:55:00;15.52;;;6.63;;
72761;SDS011;60886;55.034;73.150;2023-03-01T12:01:48;15.10;;;6.40;;
72761;SDS011;60886;55.034;73.150;2023-03-01T12:09:06;16.02;;;7.03;;
72761;SDS011;60886;55.034;73.150;2023-03-01T12:15:58;14.52;;;7.00;;
72761;SDS011;60886;55.034;73.150;2023-03-01T12:26:30;14.10;;;6.20;;
72761;SDS011;60886;55.034;73.150;2023-03-01T12:29:41;14.77;;;6.67;;
72761;SDS011;60886;55.034;73.150;2023-03-01T12:36:34;15.77;;;6.85;;
72761;SDS011;60886;55.034;73.150;2023-03-01T12:43:36;16.87;;;7.33;;
72761;SDS011;60886;55.034;73.150;2023-03-01T12:50:50;17.42;;;7.47;;
72761;SDS011;60886;55.034;73.150;2023-03-01T12:53:49;17.88;;;7.40;;
72761;SDS011;60886;55.034;73.150;2023-03-01T12:56:52;15.87;;;7.20;;
72761;SDS011;60886;55.034;73.150;2023-03-01T13:13:00;18.00;;;7.60;;
72761;SDS011;60886;55.034;73.150;2023-03-01T13:16:20;18.20;;;7.05;;
72761;SDS011;60886;55.034;73.150;2023-03-01T13:19:34;19.60;;;7.53;;
72761;SDS011;60886;55.034;73.150;2023-03-01T13:22:47;16.90;;;7.35;;
72761;SDS011;60886;55.034;73.150;2023-03-01T13:29:11;15.23;;;7.00;;
72761;SDS011;60886;55.034;73.150;2023-03-01T13:32:36;16.17;;;7.27;;
72761;SDS011;60886;55.034;73.150;2023-03-01T13:35:51;16.63;;;6.72;;
72761;SDS011;60886;55.034;73.150;2023-03-01T13:41:55;15.50;;;6.80;;
72761;SDS011;60886;55.034;73.150;2023-03-01T13:44:58;16.73;;;6.80;;
72761;SDS011;60886;55.034;73.150;2023-03-01T13:51:48;15.73;;;6.53;;
72761;SDS011;60886;55.034;73.150;2023-03-01T13:54:51;15.40;;;6.53;;
72761;SDS011;60886;55.034;73.150;2023-03-01T13:57:56;15.73;;;6.25;;
72761;SDS011;60886;55.034;73.150;2023-03-01T14:01:06;14.45;;;6.18;;
72761;SDS011;60886;55.034;73.150;2023-03-01T14:04:32;17.00;;;6.77;;
72761;SDS011;60886;55.034;73.150;2023-03-01T14:07:36;14.52;;;6.22;;
72761;SDS011;60886;55.034;73.150;2023-03-01T14:10:52;16.65;;;6.35;;
72761;SDS011;60886;55.034;73.150;2023-03-01T14:14:14;16.15;;;7.05;;
72761;SDS011;60886;55.034;73.150;2023-03-01T14:20:43;18.70;;;7.55;;
72761;SDS011;60886;55.034;73.150;2023-03-01T14:23:52;18.77;;;6.53;;
72761;SDS011;60886;55.034;73.150;2023-03-01T14:27:00;17.77;;;6.73;;
72761;SDS011;60886;55.034;73.150;2023-03-01T14:30:03;19.35;;;8.07;;
72761;SDS011;60886;55.034;73.150;2023-03-01T14:36:27;16.80;;;7.13;;
72761;SDS011;60886;55.034;73.150;2023-03-01T14:39:31;17.53;;;7.20;;
72761;SDS011;60886;55.034;73.150;2023-03-01T14:42:34;15.45;;;6.05;;
72761;SDS011;60886;55.034;73.150;2023-03-01T14:45:48;15.95;;;6.57;;
72761;SDS011;60886;55.034;73.150;2023-03-01T14:48:51;17.47;;;6.90;;
72761;SDS011;60886;55.034;73.150;2023-03-01T14:52:03;14.68;;;6.63;;
72761;SDS011;60886;55.034;73.150;2023-03-01T14:55:18;16.45;;;6.30;;
72761;SDS011;60886;55.034;73.150;2023-03-01T14:58:27;15.27;;;6.03;;
72761;SDS011;60886;55.034;73.150;2023-03-01T15:01:29;18.63;;;6.60;;
72761;SDS011;60886;55.034;73.150;2023-03-01T15:04:32;15.07;;;5.90;;
72761;SDS011;60886;55.034;73.150;2023-03-01T15:07:40;13.40;;;6.55;;
72761;SDS011;60886;55.034;73.150;2023-03-01T15:10:56;16.50;;;6.47;;
72761;SDS011;60886;55.034;73.150;2023-03-01T15:14:36;17.47;;;6.67;;
72761;SDS011;60886;55.034;73.150;2023-03-01T15:17:48;15.05;;;6.38;;
72761;SDS011;60886;55.034;73.150;2023-03-01T15:20:56;14.20;;;6.32;;
72761;SDS011;60886;55.034;73.150;2023-03-01T15:24:23;15.70;;;6.00;;
72761;SDS011;60886;55.034;73.150;2023-03-01T15:27:31;15.27;;;6.60;;
72761;SDS011;60886;55.034;73.150;2023-03-01T15:30:33;16.50;;;6.53;;
72761;SDS011;60886;55.034;73.150;2023-03-01T15:33:38;14.80;;;5.87;;
72761;SDS011;60886;55.034;73.150;2023-03-01T15:36:46;15.15;;;6.28;;
72761;SDS011;60886;55.034;73.150;2023-03-01T15:40:00;16.40;;;6.53;;
72761;SDS011;60886;55.034;73.150;2023-03-01T15:43:05;16.43;;;5.90;;
72761;SDS011;60886;55.034;73.150;2023-03-01T15:49:48;16.08;;;6.30;;
72761;SDS011;60886;55.034;73.150;2023-03-01T15:52:58;14.73;;;6.30;;
72761;SDS011;60886;55.034;73.150;2023-03-01T15:56:02;15.57;;;5.78;;
72761;SDS011;60886;55.034;73.150;2023-03-01T15:59:04;14.20;;;6.30;;
72761;SDS011;60886;55.034;73.150;2023-03-01T16:02:17;16.30;;;6.40;;
72761;SDS011;60886;55.034;73.150;2023-03-01T16:05:33;14.43;;;5.93;;
72761;SDS011;60886;55.034;73.150;2023-03-01T16:08:39;15.67;;;6.83;;
72761;SDS011;60886;55.034;73.150;2023-03-01T16:11:42;16.10;;;7.18;;
72761;SDS011;60886;55.034;73.150;2023-03-01T16:14:44;14.40;;;6.70;;
72761;SDS011;60886;55.034;73.150;2023-03-01T16:17:53;15.70;;;6.40;;
72761;SDS011;60886;55.034;73.150;2023-03-01T16:20:58;15.33;;;6.10;;
72761;SDS011;60886;55.034;73.150;2023-03-01T16:24:00;16.13;;;6.50;;
72761;SDS011;60886;55.034;73.150;2023-03-01T16:27:08;16.98;;;6.78;;
72761;SDS011;60886;55.034;73.150;2023-03-01T16:30:17;16.73;;;6.70;;
72761;SDS011;60886;55.034;73.150;2023-03-01T16:33:21;19.40;;;7.10;;
72761;SDS011;60886;55.034;73.150;2023-03-01T16:36:23;16.88;;;6.93;;
72761;SDS011;60886;55.034;73.150;2023-03-01T16:39:37;15.83;;;6.23;;
72761;SDS011;60886;55.034;73.150;2023-03-01T16:42:39;14.20;;;5.20;;
72761;SDS011;60886;55.034;73.150;2023-03-01T16:45:41;14.40;;;6.43;;
72761;SDS011;60886;55.034;73.150;2023-03-01T16:48:47;16.33;;;6.80;;
72761;SDS011;60886;55.034;73.150;2023-03-01T16:52:08;15.87;;;6.29;;
72761;SDS011;60886;55.034;73.150;2023-03-01T16:55:10;18.05;;;7.47;;
72761;SDS011;60886;55.034;73.150;2023-03-01T16:58:13;17.10;;;6.40;;
72761;SDS011;60886;55.034;73.150;2023-03-01T17:01:18;16.83;;;7.35;;
72761;SDS011;60886;55.034;73.150;2023-03-01T17:04:24;18.63;;;7.33;;
72761;SDS011;60886;55.034;73.150;2023-03-01T17:07:36;20.30;;;7.63;;
72761;SDS011;60886;55.034;73.150;2023-03-01T17:10:44;19.85;;;7.43;;
72761;SDS011;60886;55.034;73.150;2023-03-01T17:13:46;18.30;;;7.77;;
72761;SDS011;60886;55.034;73.150;2023-03-01T17:16:48;17.58;;;7.13;;
72761;SDS011;60886;55.034;73.150;2023-03-01T17:19:50;16.57;;;7.60;;
72761;SDS011;60886;55.034;73.150;2023-03-01T17:22:58;17.27;;;7.43;;
72761;SDS011;60886;55.034;73.150;2023-03-01T17:26:00;16.10;;;7.15;;
72761;SDS011;60886;55.034;73.150;2023-03-01T17:29:02;16.87;;;6.90;;
72761;SDS011;60886;55.034;73.150;2023-03-01T17:32:08;15.35;;;7.13;;
72761;SDS011;60886;55.034;73.150;2023-03-01T17:35:10;16.80;;;7.13;;
72761;SDS011;60886;55.034;73.150;2023-03-01T17:38:14;15.18;;;5.88;;
72761;SDS011;60886;55.034;73.150;2023-03-01T17:41:21;15.30;;;6.93;;
72761;SDS011;60886;55.034;73.150;2023-03-01T17:44:24;16.50;;;6.63;;
72761;SDS011;60886;55.034;73.150;2023-03-01T17:47:26;11.33;;;4.67;;
72761;SDS011;60886;55.034;73.150;2023-03-01T17:50:28;14.90;;;6.00;;
72761;SDS011;60886;55.034;73.150;2023-03-01T17:53:31;14.83;;;6.07;;
72761;SDS011;60886;55.034;73.150;2023-03-01T17:56:34;14.57;;;5.88;;
72761;SDS011;60886;55.034;73.150;2023-03-01T17:59:38;13.75;;;5.55;;
72761;SDS011;60886;55.034;73.150;2023-03-01T18:02:40;13.13;;;5.93;;
72761;SDS011;60886;55.034;73.150;2023-03-01T18:05:43;14.02;;;5.45;;
72761;SDS011;60886;55.034;73.150;2023-03-01T18:08:45;14.03;;;5.30;;
72761;SDS011;60886;55.034;73.150;2023-03-01T18:11:58;14.70;;;5.60;;
72761;SDS011;60886;55.034;73.150;2023-03-01T18:15:00;13.70;;;5.07;;
72761;SDS011;60886;55.034;73.150;2023-03-01T18:18:02;13.67;;;5.60;;
72761;SDS011;60886;55.034;73.150;2023-03-01T18:21:09;13.15;;;5.32;;
72761;SDS011;60886;55.034;73.150;2023-03-01T18:24:16;11.80;;;4.90;;
72761;SDS011;60886;55.034;73.150;2023-03-01T18:27:18;12.53;;;5.20;;
72761;SDS011;60886;55.034;73.150;2023-03-01T18:30:19;12.30;;;5.18;;
72761;SDS011;60886;55.034;73.150;2023-03-01T18:33:25;12.48;;;5.22;;
72761;SDS011;60886;55.034;73.150;2023-03-01T18:36:28;11.13;;;4.53;;
72761;SDS011;60886;55.034;73.150;2023-03-01T18:39:36;11.27;;;4.83;;
72761;SDS011;60886;55.034;73.150;2023-03-01T18:42:43;12.52;;;5.03;;
72761;SDS011;60886;55.034;73.150;2023-03-01T18:45:44;12.20;;;4.63;;
72761;SDS011;60886;55.034;73.150;2023-03-01T18:48:47;12.77;;;3.77;;
72761;SDS011;60886;55.034;73.150;2023-03-01T18:52:08;11.88;;;4.60;;
72761;SDS011;60886;55.034;73.150;2023-03-01T18:55:14;10.98;;;4.38;;
72761;SDS011;60886;55.034;73.150;2023-03-01T18:58:16;11.50;;;4.53;;
72761;SDS011;60886;55.034;73.150;2023-03-01T19:01:19;11.37;;;4.57;;
72761;SDS011;60886;55.034;73.150;2023-03-01T19:04:22;10.70;;;3.83;;
72761;SDS011;60886;55.034;73.150;2023-03-01T19:07:28;12.00;;;4.30;;
72761;SDS011;60886;55.034;73.150;2023-03-01T19:10:31;10.40;;;3.78;;
72761;SDS011;60886;55.034;73.150;2023-03-01T19:13:33;10.00;;;3.43;;
72761;SDS011;60886;55.034;73.150;2023-03-01T19:16:42;9.87;;;3.67;;
72761;SDS011;60886;55.034;73.150;2023-03-01T19:19:43;12.07;;;4.43;;
72761;SDS011;60886;55.034;73.150;2023-03-01T19:22:54;9.65;;;3.88;;
72761;SDS011;60886;55.034;73.150;2023-03-01T19:26:01;10.70;;;3.97;;
72761;SDS011;60886;55.034;73.150;2023-03-01T19:29:04;12.00;;;4.20;;
72761;SDS011;60886;55.034;73.150;2023-03-01T19:32:08;8.95;;;3.35;;
72761;SDS011;60886;55.034;73.150;2023-03-01T19:35:20;10.27;;;3.80;;
72761;SDS011;60886;55.034;73.150;2023-03-01T19:38:28;8.60;;;2.85;;
72761;SDS011;60886;55.034;73.150;2023-03-01T19:41:29;8.95;;;3.60;;
72761;SDS011;60886;55.034;73.150;2023-03-01T19:44:31;9.43;;;3.50;;
72761;SDS011;60886;55.034;73.150;2023-03-01T19:47:32;10.10;;;3.87;;
72761;SDS011;60886;55.034;73.150;2023-03-01T19:50:45;10.77;;;3.85;;
72761;SDS011;60886;55.034;73.150;2023-03-01T19:53:49;9.87;;;3.47;;